sensor_id;sensor_type;location;lat;lon;timestamp;P1;durP1;ratioP1;P2;durP2;ratioP2
63005;SDS011;53704;52.532;6.426;2023-03-14T00:02:02;33.40;;;5.80;;
63005;SDS011;53704;52.532;6.426;2023-03-14T00:04:27;21.38;;;5.05;;
63005;SDS011;53704;52.532;6.426;2023-03-14T00:06:53;32.67;;;5.20;;
63005;SDS011;53704;52.532;6.426;2023-03-14T00:09:18;25.40;;;5.80;;
63005;SDS011;53704;52.532;6.426;2023-03-14T00:11:44;29.48;;;5.75;;
63005;SDS011;53704;52.532;6.426;2023-03-14T00:14:09;22.08;;;4.55;;
63005;SDS011;53704;52.532;6.426;2023-03-14T00:16:34;25.05;;;6.03;;
63005;SDS011;53704;52.532;6.426;2023-03-14T00:19:00;33.50;;;5.93;;
63005;SDS011;53704;52.532;6.426;2023-03-14T00:21:26;21.42;;;4.93;;
63005;SDS011;53704;52.532;6.426;2023-03-14T00:23:52;29.73;;;5.78;;
63005;SDS011;53704;52.532;6.426;2023-03-14T00:26:18;28.63;;;5.35;;
63005;SDS011;53704;52.532;6.426;2023-03-14T00:28:45;29.90;;;5.93;;
63005;SDS011;53704;52.532;6.426;2023-03-14T00:31:13;30.67;;;6.40;;
63005;SDS011;53704;52.532;6.426;2023-03-14T00:33:39;15.15;;;5.03;;
63005;SDS011;53704;52.532;6.426;2023-03-14T00:36:07;22.85;;;5.45;;
63005;SDS011;53704;52.532;6.426;2023-03-14T00:38:35;30.10;;;5.68;;
63005;SDS011;53704;52.532;6.426;2023-03-14T00:41:05;19.58;;;4.63;;
63005;SDS011;53704;52.532;6.426;2023-03-14T00:43:32;19.92;;;4.97;;
63005;SDS011;53704;52.532;6.426;2023-03-14T00:45:57;26.13;;;5.60;;
63005;SDS011;53704;52.532;6.426;2023-03-14T00:48:23;40.00;;;6.95;;
63005;SDS011;53704;52.532;6.426;2023-03-14T00:50:49;32.42;;;6.25;;
63005;SDS011;53704;52.532;6.426;2023-03-14T00:53:14;12.95;;;4.32;;
63005;SDS011;53704;52.532;6.426;2023-03-14T00:55:40;24.73;;;4.75;;
63005;SDS011;53704;52.532;6.426;2023-03-14T00:58:07;18.23;;;4.38;;
63005;SDS011;53704;52.532;6.426;2023-03-14T01:00:33;13.90;;;4.10;;
63005;SDS011;53704;52.532;6.426;2023-03-14T01:02:59;18.23;;;4.35;;
63005;SDS011;53704;52.532;6.426;2023-03-14T01:05:25;21.20;;;4.20;;
63005;SDS011;53704;52.532;6.426;2023-03-14T01:07:50;16.13;;;4.10;;
63005;SDS011;53704;52.532;6.426;2023-03-14T01:10:16;18.88;;;4.63;;
63005;SDS011;53704;52.532;6.426;2023-03-14T01:12:42;12.98;;;3.92;;
63005;SDS011;53704;52.532;6.426;2023-03-14T01:15:08;16.73;;;5.22;;
63005;SDS011;53704;52.532;6.426;2023-03-14T01:17:34;26.58;;;5.35;;
63005;SDS011;53704;52.532;6.426;2023-03-14T01:19:59;23.95;;;5.10;;
63005;SDS011;53704;52.532;6.426;2023-03-14T01:22:25;24.05;;;5.63;;
63005;SDS011;53704;52.532;6.426;2023-03-14T01:24:51;20.30;;;4.55;;
63005;SDS011;53704;52.532;6.426;2023-03-14T01:27:16;28.70;;;4.60;;
63005;SDS011;53704;52.532;6.426;2023-03-14T01:29:42;24.67;;;5.18;;
63005;SDS011;53704;52.532;6.426;2023-03-14T01:32:07;31.33;;;5.22;;
63005;SDS011;53704;52.532;6.426;2023-03-14T01:34:33;18.98;;;4.93;;
63005;SDS011;53704;52.532;6.426;2023-03-14T01:36:58;28.55;;;6.05;;
63005;SDS011;53704;52.532;6.426;2023-03-14T01:39:23;19.58;;;4.90;;
63005;SDS011;53704;52.532;6.426;2023-03-14T01:41:49;21.38;;;4.80;;
63005;SDS011;53704;52.532;6.426;2023-03-14T01:44:14;29.50;;;5.88;;
63005;SDS011;53704;52.532;6.426;2023-03-14T01:46:40;23.95;;;5.07;;
63005;SDS011;53704;52.532;6.426;2023-03-14T01:49:15;30.00;;;5.78;;
63005;SDS011;53704;52.532;6.426;2023-03-14T01:56:52;21.85;;;4.93;;
63005;SDS011;53704;52.532;6.426;2023-03-14T01:59:21;16.55;;;3.97;;
63005;SDS011;53704;52.532;6.426;2023-03-14T02:01:47;19.90;;;3.92;;
63005;SDS011;53704;52.532;6.426;2023-03-14T02:04:16;16.42;;;3.15;;
63005;SDS011;53704;52.532;6.426;2023-03-14T02:06:51;16.30;;;3.42;;
63005;SDS011;53704;52.532;6.426;2023-03-14T02:09:24;20.15;;;3.67;;
63005;SDS011;53704;52.532;6.426;2023-03-14T02:11:50;11.48;;;2.97;;
63005;SDS011;53704;52.532;6.426;2023-03-14T02:14:21;18.60;;;4.25;;
63005;SDS011;53704;52.532;6.426;2023-03-14T02:16:54;17.13;;;3.45;;
63005;SDS011;53704;52.532;6.426;2023-03-14T02:19:22;11.88;;;3.28;;
63005;SDS011;53704;52.532;6.426;2023-03-14T02:22:00;18.50;;;3.95;;
63005;SDS011;53704;52.532;6.426;2023-03-14T02:24:34;16.30;;;3.40;;
63005;SDS011;53704;52.532;6.426;2023-03-14T02:27:13;23.25;;;4.07;;
63005;SDS011;53704;52.532;6.426;2023-03-14T02:29:44;23.67;;;3.75;;
63005;SDS011;53704;52.532;6.426;2023-03-14T02:32:14;24.10;;;4.03;;
63005;SDS011;53704;52.532;6.426;2023-03-14T02:34:42;24.25;;;3.30;;
63005;SDS011;53704;52.532;6.426;2023-03-14T02:37:10;18.95;;;3.90;;
63005;SDS011;53704;52.532;6.426;2023-03-14T02:39:39;12.90;;;3.28;;
63005;SDS011;53704;52.532;6.426;2023-03-14T02:42:09;20.85;;;3.30;;
63005;SDS011;53704;52.532;6.426;2023-03-14T02:44:35;13.70;;;3.03;;
63005;SDS011;53704;52.532;6.426;2023-03-14T02:47:00;24.83;;;2.90;;
63005;SDS011;53704;52.532;6.426;2023-03-14T02:49:27;11.77;;;2.78;;
63005;SDS011;53704;52.532;6.426;2023-03-14T02:51:57;11.40;;;2.78;;
63005;SDS011;53704;52.532;6.426;2023-03-14T02:54:22;15.52;;;2.72;;
63005;SDS011;53704;52.532;6.426;2023-03-14T02:56:47;10.75;;;3.20;;
63005;SDS011;53704;52.532;6.426;2023-03-14T02:59:13;10.23;;;2.78;;
63005;SDS011;53704;52.532;6.426;2023-03-14T03:01:38;12.98;;;2.25;;
63005;SDS011;53704;52.532;6.426;2023-03-14T03:04:04;8.98;;;2.60;;
63005;SDS011;53704;52.532;6.426;2023-03-14T03:06:29;16.40;;;3.15;;
63005;SDS011;53704;52.532;6.426;2023-03-14T03:08:55;22.85;;;3.72;;
63005;SDS011;53704;52.532;6.426;2023-03-14T03:11:20;16.77;;;2.88;;
63005;SDS011;53704;52.532;6.426;2023-03-14T03:13:46;14.80;;;2.80;;
63005;SDS011;53704;52.532;6.426;2023-03-14T03:16:11;17.73;;;3.08;;
63005;SDS011;53704;52.532;6.426;2023-03-14T03:18:38;9.52;;;2.20;;
63005;SDS011;53704;52.532;6.426;2023-03-14T03:21:04;15.20;;;2.85;;
63005;SDS011;53704;52.532;6.426;2023-03-14T03:23:30;17.02;;;3.00;;
63005;SDS011;53704;52.532;6.426;2023-03-14T03:25:55;16.42;;;2.78;;
63005;SDS011;53704;52.532;6.426;2023-03-14T03:28:21;12.15;;;2.65;;
63005;SDS011;53704;52.532;6.426;2023-03-14T03:30:46;14.43;;;2.47;;
63005;SDS011;53704;52.532;6.426;2023-03-14T03:33:12;12.07;;;3.22;;
63005;SDS011;53704;52.532;6.426;2023-03-14T03:35:41;15.18;;;3.20;;
63005;SDS011;53704;52.532;6.426;2023-03-14T03:38:11;9.65;;;2.80;;
63005;SDS011;53704;52.532;6.426;2023-03-14T03:40:37;10.07;;;2.55;;
63005;SDS011;53704;52.532;6.426;2023-03-14T03:43:02;14.75;;;2.75;;
63005;SDS011;53704;52.532;6.426;2023-03-14T03:45:29;11.75;;;3.33;;
63005;SDS011;53704;52.532;6.426;2023-03-14T03:47:58;6.53;;;2.78;;
63005;SDS011;53704;52.532;6.426;2023-03-14T03:50:23;12.82;;;2.95;;
63005;SDS011;53704;52.532;6.426;2023-03-14T03:52:49;10.38;;;2.55;;
63005;SDS011;53704;52.532;6.426;2023-03-14T03:55:14;10.30;;;2.92;;
63005;SDS011;53704;52.532;6.426;2023-03-14T03:57:40;12.20;;;2.95;;
63005;SDS011;53704;52.532;6.426;2023-03-14T04:00:05;12.48;;;2.50;;
63005;SDS011;53704;52.532;6.426;2023-03-14T04:02:34;7.50;;;3.00;;
63005;SDS011;53704;52.532;6.426;2023-03-14T04:04:59;12.85;;;2.70;;
63005;SDS011;53704;52.532;6.426;2023-03-14T04:07:25;7.50;;;3.20;;
63005;SDS011;53704;52.532;6.426;2023-03-14T04:09:50;10.10;;;3.05;;
63005;SDS011;53704;52.532;6.426;2023-03-14T04:12:15;12.43;;;3.17;;
63005;SDS011;53704;52.532;6.426;2023-03-14T04:14:41;11.30;;;3.40;;
63005;SDS011;53704;52.532;6.426;2023-03-14T04:17:06;11.00;;;2.80;;
63005;SDS011;53704;52.532;6.426;2023-03-14T04:19:32;13.25;;;4.07;;
63005;SDS011;53704;52.532;6.426;2023-03-14T04:21:58;11.32;;;3.63;;
63005;SDS011;53704;52.532;6.426;2023-03-14T04:24:23;14.18;;;3.50;;
63005;SDS011;53704;52.532;6.426;2023-03-14T04:26:49;9.90;;;3.10;;
63005;SDS011;53704;52.532;6.426;2023-03-14T04:29:14;10.73;;;3.10;;
63005;SDS011;53704;52.532;6.426;2023-03-14T04:31:40;12.35;;;2.97;;
63005;SDS011;53704;52.532;6.426;2023-03-14T04:34:05;5.43;;;3.08;;
63005;SDS011;53704;52.532;6.426;2023-03-14T04:36:31;14.38;;;3.30;;
63005;SDS011;53704;52.532;6.426;2023-03-14T04:38:56;14.68;;;4.25;;
63005;SDS011;53704;52.532;6.426;2023-03-14T04:41:21;8.73;;;2.60;;
63005;SDS011;53704;52.532;6.426;2023-03-14T04:43:47;14.02;;;3.35;;
63005;SDS011;53704;52.532;6.426;2023-03-14T04:46:12;9.45;;;3.58;;
63005;SDS011;53704;52.532;6.426;2023-03-14T04:48:38;12.02;;;2.78;;
63005;SDS011;53704;52.532;6.426;2023-03-14T04:51:03;14.27;;;3.30;;
63005;SDS011;53704;52.532;6.426;2023-03-14T04:53:29;14.57;;;3.10;;
63005;SDS011;53704;52.532;6.426;2023-03-14T04:55:55;8.63;;;3.00;;
63005;SDS011;53704;52.532;6.426;2023-03-14T04:58:21;12.88;;;2.78;;
63005;SDS011;53704;52.532;6.426;2023-03-14T05:00:47;13.85;;;3.55;;
63005;SDS011;53704;52.532;6.426;2023-03-14T05:03:16;9.88;;;2.92;;
63005;SDS011;53704;52.532;6.426;2023-03-14T05:05:43;16.08;;;2.67;;
63005;SDS011;53704;52.532;6.426;2023-03-14T05:08:08;14.23;;;3.22;;
63005;SDS011;53704;52.532;6.426;2023-03-14T05:10:34;16.30;;;2.97;;
63005;SDS011;53704;52.532;6.426;2023-03-14T05:12:59;14.10;;;3.28;;
63005;SDS011;53704;52.532;6.426;2023-03-14T05:15:25;11.65;;;3.17;;
63005;SDS011;53704;52.532;6.426;2023-03-14T05:17:50;14.25;;;3.47;;
63005;SDS011;53704;52.532;6.426;2023-03-14T05:20:16;18.17;;;3.50;;
63005;SDS011;53704;52.532;6.426;2023-03-14T05:22:41;15.40;;;3.30;;
63005;SDS011;53704;52.532;6.426;2023-03-14T05:25:07;15.52;;;3.20;;
63005;SDS011;53704;52.532;6.426;2023-03-14T05:27:34;12.15;;;2.90;;
63005;SDS011;53704;52.532;6.426;2023-03-14T05:29:59;13.23;;;3.30;;
63005;SDS011;53704;52.532;6.426;2023-03-14T05:32:25;17.17;;;3.47;;
63005;SDS011;53704;52.532;6.426;2023-03-14T05:34:51;15.57;;;3.38;;
63005;SDS011;53704;52.532;6.426;2023-03-14T05:37:16;14.95;;;3.10;;
63005;SDS011;53704;52.532;6.426;2023-03-14T05:39:41;12.73;;;3.00;;
63005;SDS011;53704;52.532;6.426;2023-03-14T05:42:07;12.30;;;2.95;;
63005;SDS011;53704;52.532;6.426;2023-03-14T05:44:32;15.15;;;3.10;;
63005;SDS011;53704;52.532;6.426;2023-03-14T05:46:58;17.70;;;3.35;;
63005;SDS011;53704;52.532;6.426;2023-03-14T05:49:23;8.10;;;3.88;;
63005;SDS011;53704;52.532;6.426;2023-03-14T05:51:48;10.20;;;2.83;;
63005;SDS011;53704;52.532;6.426;2023-03-14T05:54:14;13.45;;;3.53;;
63005;SDS011;53704;52.532;6.426;2023-03-14T05:56:39;9.23;;;2.60;;
63005;SDS011;53704;52.532;6.426;2023-03-14T05:59:05;13.65;;;3.15;;
63005;SDS011;53704;52.532;6.426;2023-03-14T06:01:32;11.40;;;3.53;;
63005;SDS011;53704;52.532;6.426;2023-03-14T06:03:57;21.88;;;4.20;;
63005;SDS011;53704;52.532;6.426;2023-03-14T06:06:23;10.77;;;4.03;;
63005;SDS011;53704;52.532;6.426;2023-03-14T06:08:48;14.75;;;3.70;;
63005;SDS011;53704;52.532;6.426;2023-03-14T06:11:14;16.10;;;3.97;;
63005;SDS011;53704;52.532;6.426;2023-03-14T06:13:39;14.63;;;3.85;;
63005;SDS011;53704;52.532;6.426;2023-03-14T06:16:05;18.30;;;4.32;;
63005;SDS011;53704;52.532;6.426;2023-03-14T06:18:31;16.35;;;3.60;;
63005;SDS011;53704;52.532;6.426;2023-03-14T06:20:57;17.17;;;4.10;;
63005;SDS011;53704;52.532;6.426;2023-03-14T06:23:22;21.98;;;4.65;;
63005;SDS011;53704;52.532;6.426;2023-03-14T06:25:47;11.50;;;4.70;;
63005;SDS011;53704;52.532;6.426;2023-03-14T06:28:13;18.15;;;5.05;;
63005;SDS011;53704;52.532;6.426;2023-03-14T06:30:39;16.48;;;4.57;;
63005;SDS011;53704;52.532;6.426;2023-03-14T06:33:04;9.52;;;4.25;;
63005;SDS011;53704;52.532;6.426;2023-03-14T06:35:30;18.70;;;3.85;;
63005;SDS011;53704;52.532;6.426;2023-03-14T06:37:55;12.52;;;3.80;;
63005;SDS011;53704;52.532;6.426;2023-03-14T06:40:20;15.07;;;3.90;;
63005;SDS011;53704;52.532;6.426;2023-03-14T06:42:46;11.00;;;3.63;;
63005;SDS011;53704;52.532;6.426;2023-03-14T06:45:12;13.15;;;3.85;;
63005;SDS011;53704;52.532;6.426;2023-03-14T06:47:38;13.75;;;3.70;;
63005;SDS011;53704;52.532;6.426;2023-03-14T06:50:05;10.35;;;3.92;;
63005;SDS011;53704;52.532;6.426;2023-03-14T06:52:31;8.20;;;3.35;;
63005;SDS011;53704;52.532;6.426;2023-03-14T06:54:57;11.07;;;3.33;;
63005;SDS011;53704;52.532;6.426;2023-03-14T06:57:23;21.98;;;4.70;;
63005;SDS011;53704;52.532;6.426;2023-03-14T06:59:48;20.98;;;3.70;;
63005;SDS011;53704;52.532;6.426;2023-03-14T07:02:14;10.75;;;3.90;;
63005;SDS011;53704;52.532;6.426;2023-03-14T07:04:39;7.82;;;3.25;;
63005;SDS011;53704;52.532;6.426;2023-03-14T07:07:05;8.20;;;3.80;;
63005;SDS011;53704;52.532;6.426;2023-03-14T07:09:31;13.77;;;4.45;;
63005;SDS011;53704;52.532;6.426;2023-03-14T07:11:57;15.40;;;3.92;;
63005;SDS011;53704;52.532;6.426;2023-03-14T07:14:23;10.57;;;4.40;;
63005;SDS011;53704;52.532;6.426;2023-03-14T07:16:48;11.88;;;3.92;;
63005;SDS011;53704;52.532;6.426;2023-03-14T07:19:14;16.58;;;3.72;;
63005;SDS011;53704;52.532;6.426;2023-03-14T07:21:39;21.92;;;5.22;;
63005;SDS011;53704;52.532;6.426;2023-03-14T07:24:05;4.68;;;1.55;;
63005;SDS011;53704;52.532;6.426;2023-03-14T07:26:31;4.10;;;1.13;;
63005;SDS011;53704;52.532;6.426;2023-03-14T07:28:56;6.65;;;5.22;;
63005;SDS011;53704;52.532;6.426;2023-03-14T07:31:22;5.10;;;4.63;;
63005;SDS011;53704;52.532;6.426;2023-03-14T07:33:47;4.47;;;1.85;;
63005;SDS011;53704;52.532;6.426;2023-03-14T07:36:13;5.97;;;5.47;;
63005;SDS011;53704;52.532;6.426;2023-03-14T07:38:38;5.68;;;1.52;;
63005;SDS011;53704;52.532;6.426;2023-03-14T07:41:04;3.38;;;3.10;;
63005;SDS011;53704;52.532;6.426;2023-03-14T07:43:30;4.45;;;2.80;;
63005;SDS011;53704;52.532;6.426;2023-03-14T07:45:58;5.30;;;3.10;;
63005;SDS011;53704;52.532;6.426;2023-03-14T07:48:23;4.47;;;3.17;;
63005;SDS011;53704;52.532;6.426;2023-03-14T07:50:53;2.97;;;1.50;;
63005;SDS011;53704;52.532;6.426;2023-03-14T07:53:20;6.28;;;2.75;;
63005;SDS011;53704;52.532;6.426;2023-03-14T07:55:46;4.10;;;1.70;;
63005;SDS011;53704;52.532;6.426;2023-03-14T07:58:14;4.68;;;1.70;;
63005;SDS011;53704;52.532;6.426;2023-03-14T08:00:39;4.20;;;1.27;;
63005;SDS011;53704;52.532;6.426;2023-03-14T08:03:05;5.82;;;1.15;;
63005;SDS011;53704;52.532;6.426;2023-03-14T08:05:33;5.75;;;0.93;;
63005;SDS011;53704;52.532;6.426;2023-03-14T08:08:00;5.63;;;1.58;;
63005;SDS011;53704;52.532;6.426;2023-03-14T08:10:26;8.48;;;1.02;;
63005;SDS011;53704;52.532;6.426;2023-03-14T08:12:54;6.65;;;1.63;;
63005;SDS011;53704;52.532;6.426;2023-03-14T08:15:21;10.88;;;2.67;;
63005;SDS011;53704;52.532;6.426;2023-03-14T08:17:48;4.00;;;1.02;;
63005;SDS011;53704;52.532;6.426;2023-03-14T08:20:18;6.40;;;1.27;;
63005;SDS011;53704;52.532;6.426;2023-03-14T08:22:45;3.72;;;1.00;;
63005;SDS011;53704;52.532;6.426;2023-03-14T08:25:10;5.03;;;1.17;;
63005;SDS011;53704;52.532;6.426;2023-03-14T08:27:36;5.80;;;1.80;;
63005;SDS011;53704;52.532;6.426;2023-03-14T08:30:06;3.65;;;0.75;;
63005;SDS011;53704;52.532;6.426;2023-03-14T08:32:36;2.63;;;0.70;;
63005;SDS011;53704;52.532;6.426;2023-03-14T08:35:02;2.75;;;0.57;;
63005;SDS011;53704;52.532;6.426;2023-03-14T08:37:28;4.55;;;0.55;;
63005;SDS011;53704;52.532;6.426;2023-03-14T08:39:53;1.65;;;0.77;;
63005;SDS011;53704;52.532;6.426;2023-03-14T08:42:19;0.88;;;0.40;;
63005;SDS011;53704;52.532;6.426;2023-03-14T08:44:44;3.70;;;0.52;;
63005;SDS011;53704;52.532;6.426;2023-03-14T08:47:10;6.22;;;1.30;;
63005;SDS011;53704;52.532;6.426;2023-03-14T08:49:39;5.18;;;0.52;;
63005;SDS011;53704;52.532;6.426;2023-03-14T08:52:04;6.57;;;0.70;;
63005;SDS011;53704;52.532;6.426;2023-03-14T08:54:31;2.90;;;0.63;;
63005;SDS011;53704;52.532;6.426;2023-03-14T08:56:57;10.05;;;0.95;;
63005;SDS011;53704;52.532;6.426;2023-03-14T08:59:23;3.80;;;0.77;;
63005;SDS011;53704;52.532;6.426;2023-03-14T09:01:48;6.07;;;0.88;;
63005;SDS011;53704;52.532;6.426;2023-03-14T09:04:14;7.90;;;0.50;;
63005;SDS011;53704;52.532;6.426;2023-03-14T09:06:40;3.00;;;0.82;;
63005;SDS011;53704;52.532;6.426;2023-03-14T09:09:05;4.93;;;0.63;;
63005;SDS011;53704;52.532;6.426;2023-03-14T09:11:31;8.75;;;0.75;;
63005;SDS011;53704;52.532;6.426;2023-03-14T09:13:57;6.20;;;0.77;;
63005;SDS011;53704;52.532;6.426;2023-03-14T09:16:22;4.40;;;0.75;;
63005;SDS011;53704;52.532;6.426;2023-03-14T09:18:48;3.95;;;0.68;;
63005;SDS011;53704;52.532;6.426;2023-03-14T09:21:13;3.70;;;0.93;;
63005;SDS011;53704;52.532;6.426;2023-03-14T09:23:39;8.30;;;1.00;;
63005;SDS011;53704;52.532;6.426;2023-03-14T09:26:05;6.15;;;0.80;;
63005;SDS011;53704;52.532;6.426;2023-03-14T09:28:31;5.10;;;1.10;;
63005;SDS011;53704;52.532;6.426;2023-03-14T09:30:57;6.18;;;1.17;;
63005;SDS011;53704;52.532;6.426;2023-03-14T09:33:23;10.80;;;4.85;;
63005;SDS011;53704;52.532;6.426;2023-03-14T09:35:48;2.65;;;0.60;;
63005;SDS011;53704;52.532;6.426;2023-03-14T09:38:14;2.63;;;1.00;;
63005;SDS011;53704;52.532;6.426;2023-03-14T09:40:40;8.95;;;2.35;;
63005;SDS011;53704;52.532;6.426;2023-03-14T09:43:08;5.38;;;1.00;;
63005;SDS011;53704;52.532;6.426;2023-03-14T09:45:37;19.90;;;4.13;;
63005;SDS011;53704;52.532;6.426;2023-03-14T09:48:06;12.55;;;2.35;;
63005;SDS011;53704;52.532;6.426;2023-03-14T09:50:44;9.73;;;1.70;;
63005;SDS011;53704;52.532;6.426;2023-03-14T09:53:17;8.85;;;1.33;;
63005;SDS011;53704;52.532;6.426;2023-03-14T09:55:47;12.77;;;1.85;;
63005;SDS011;53704;52.532;6.426;2023-03-14T09:58:19;12.07;;;1.83;;
63005;SDS011;53704;52.532;6.426;2023-03-14T10:00:47;9.77;;;1.92;;
63005;SDS011;53704;52.532;6.426;2023-03-14T10:05:57;13.77;;;2.28;;
63005;SDS011;53704;52.532;6.426;2023-03-14T10:08:23;17.80;;;2.90;;
63005;SDS011;53704;52.532;6.426;2023-03-14T10:10:48;13.80;;;2.53;;
63005;SDS011;53704;52.532;6.426;2023-03-14T10:13:15;8.75;;;2.13;;
63005;SDS011;53704;52.532;6.426;2023-03-14T10:15:59;17.10;;;2.63;;
63005;SDS011;53704;52.532;6.426;2023-03-14T10:18:27;16.67;;;2.67;;
63005;SDS011;53704;52.532;6.426;2023-03-14T10:21:01;21.05;;;3.25;;
63005;SDS011;53704;52.532;6.426;2023-03-14T10:23:30;15.07;;;2.75;;
63005;SDS011;53704;52.532;6.426;2023-03-14T10:25:59;25.08;;;3.17;;
63005;SDS011;53704;52.532;6.426;2023-03-14T10:28:32;20.65;;;3.10;;
63005;SDS011;53704;52.532;6.426;2023-03-14T10:31:02;17.63;;;3.28;;
63005;SDS011;53704;52.532;6.426;2023-03-14T10:33:32;21.88;;;3.67;;
63005;SDS011;53704;52.532;6.426;2023-03-14T10:38:28;32.65;;;4.57;;
63005;SDS011;53704;52.532;6.426;2023-03-14T10:40:58;23.63;;;3.10;;
63005;SDS011;53704;52.532;6.426;2023-03-14T10:43:31;18.55;;;2.70;;
63005;SDS011;53704;52.532;6.426;2023-03-14T10:45:59;15.55;;;3.33;;
63005;SDS011;53704;52.532;6.426;2023-03-14T10:48:32;15.48;;;2.83;;
63005;SDS011;53704;52.532;6.426;2023-03-14T10:53:24;15.70;;;2.88;;
63005;SDS011;53704;52.532;6.426;2023-03-14T10:55:51;35.95;;;3.70;;
63005;SDS011;53704;52.532;6.426;2023-03-14T10:58:27;24.20;;;3.90;;
63005;SDS011;53704;52.532;6.426;2023-03-14T11:01:08;31.50;;;4.72;;
63005;SDS011;53704;52.532;6.426;2023-03-14T11:03:35;32.97;;;4.00;;
63005;SDS011;53704;52.532;6.426;2023-03-14T11:06:12;24.33;;;3.60;;
63005;SDS011;53704;52.532;6.426;2023-03-14T11:11:30;33.20;;;6.05;;
63005;SDS011;53704;52.532;6.426;2023-03-14T11:14:31;22.63;;;3.90;;
63005;SDS011;53704;52.532;6.426;2023-03-14T11:27:45;18.48;;;3.47;;
63005;SDS011;53704;52.532;6.426;2023-03-14T11:30:37;31.02;;;4.95;;
63005;SDS011;53704;52.532;6.426;2023-03-14T11:33:14;18.70;;;3.00;;
63005;SDS011;53704;52.532;6.426;2023-03-14T11:35:44;25.98;;;4.13;;
63005;SDS011;53704;52.532;6.426;2023-03-14T11:40:58;23.20;;;3.47;;
63005;SDS011;53704;52.532;6.426;2023-03-14T11:45:53;23.83;;;3.45;;
63005;SDS011;53704;52.532;6.426;2023-03-14T11:51:32;25.83;;;3.50;;
63005;SDS011;53704;52.532;6.426;2023-03-14T11:54:04;11.10;;;2.40;;
63005;SDS011;53704;52.532;6.426;2023-03-14T11:56:34;13.55;;;2.30;;
63005;SDS011;53704;52.532;6.426;2023-03-14T11:59:05;15.93;;;2.60;;
63005;SDS011;53704;52.532;6.426;2023-03-14T12:02:01;25.77;;;3.42;;
63005;SDS011;53704;52.532;6.426;2023-03-14T12:07:19;11.10;;;2.15;;
63005;SDS011;53704;52.532;6.426;2023-03-14T12:09:49;11.35;;;1.80;;
63005;SDS011;53704;52.532;6.426;2023-03-14T12:12:20;8.82;;;2.13;;
63005;SDS011;53704;52.532;6.426;2023-03-14T12:14:52;17.15;;;2.67;;
63005;SDS011;53704;52.532;6.426;2023-03-14T12:17:36;11.45;;;2.28;;
63005;SDS011;53704;52.532;6.426;2023-03-14T12:22:43;28.33;;;2.92;;
63005;SDS011;53704;52.532;6.426;2023-03-14T12:27:41;18.08;;;3.45;;
63005;SDS011;53704;52.532;6.426;2023-03-14T12:30:23;13.65;;;5.68;;
63005;SDS011;53704;52.532;6.426;2023-03-14T12:35:38;11.90;;;2.47;;
63005;SDS011;53704;52.532;6.426;2023-03-14T12:41:34;10.63;;;2.10;;
63005;SDS011;53704;52.532;6.426;2023-03-14T12:44:20;5.90;;;1.38;;
63005;SDS011;53704;52.532;6.426;2023-03-14T12:46:53;10.32;;;1.50;;
63005;SDS011;53704;52.532;6.426;2023-03-14T12:49:19;7.50;;;2.28;;
63005;SDS011;53704;52.532;6.426;2023-03-14T12:51:45;7.97;;;1.20;;
63005;SDS011;53704;52.532;6.426;2023-03-14T12:57:12;15.88;;;1.80;;
63005;SDS011;53704;52.532;6.426;2023-03-14T12:59:56;9.35;;;1.27;;
63005;SDS011;53704;52.532;6.426;2023-03-14T13:02:41;6.40;;;1.48;;
63005;SDS011;53704;52.532;6.426;2023-03-14T13:05:11;14.77;;;2.17;;
63005;SDS011;53704;52.532;6.426;2023-03-14T13:10:22;8.93;;;1.35;;
63005;SDS011;53704;52.532;6.426;2023-03-14T13:15:17;8.40;;;1.90;;
63005;SDS011;53704;52.532;6.426;2023-03-14T13:17:46;4.50;;;1.65;;
63005;SDS011;53704;52.532;6.426;2023-03-14T13:20:15;11.57;;;2.95;;
63005;SDS011;53704;52.532;6.426;2023-03-14T13:22:46;8.25;;;2.33;;
63005;SDS011;53704;52.532;6.426;2023-03-14T13:25:13;18.30;;;3.33;;
63005;SDS011;53704;52.532;6.426;2023-03-14T13:27:38;22.17;;;2.72;;
63005;SDS011;53704;52.532;6.426;2023-03-14T13:30:21;9.55;;;1.63;;
63005;SDS011;53704;52.532;6.426;2023-03-14T13:32:48;10.15;;;2.47;;
63005;SDS011;53704;52.532;6.426;2023-03-14T13:35:25;5.65;;;2.10;;
63005;SDS011;53704;52.532;6.426;2023-03-14T13:37:55;17.10;;;2.20;;
63005;SDS011;53704;52.532;6.426;2023-03-14T13:40:29;11.90;;;2.00;;
63005;SDS011;53704;52.532;6.426;2023-03-14T13:46:05;13.07;;;2.47;;
63005;SDS011;53704;52.532;6.426;2023-03-14T13:48:42;8.32;;;1.55;;
63005;SDS011;53704;52.532;6.426;2023-03-14T13:51:10;9.90;;;2.08;;
63005;SDS011;53704;52.532;6.426;2023-03-14T13:56:14;3.85;;;1.30;;
63005;SDS011;53704;52.532;6.426;2023-03-14T13:58:40;6.70;;;1.38;;
63005;SDS011;53704;52.532;6.426;2023-03-14T14:01:10;11.02;;;1.67;;
63005;SDS011;53704;52.532;6.426;2023-03-14T14:03:37;3.67;;;1.65;;
63005;SDS011;53704;52.532;6.426;2023-03-14T14:06:06;4.25;;;1.65;;
63005;SDS011;53704;52.532;6.426;2023-03-14T14:08:41;5.65;;;1.48;;
63005;SDS011;53704;52.532;6.426;2023-03-14T14:11:08;5.45;;;1.38;;
63005;SDS011;53704;52.532;6.426;2023-03-14T14:13:52;8.05;;;1.17;;
63005;SDS011;53704;52.532;6.426;2023-03-14T14:16:20;9.23;;;1.02;;
63005;SDS011;53704;52.532;6.426;2023-03-14T14:18:49;12.10;;;2.03;;
63005;SDS011;53704;52.532;6.426;2023-03-14T14:21:16;3.80;;;1.05;;
63005;SDS011;53704;52.532;6.426;2023-03-14T14:23:42;9.65;;;1.70;;
63005;SDS011;53704;52.532;6.426;2023-03-14T14:26:08;9.43;;;1.67;;
63005;SDS011;53704;52.532;6.426;2023-03-14T14:28:36;7.22;;;1.35;;
63005;SDS011;53704;52.532;6.426;2023-03-14T14:31:17;8.95;;;1.58;;
63005;SDS011;53704;52.532;6.426;2023-03-14T14:36:31;8.18;;;2.03;;
63005;SDS011;53704;52.532;6.426;2023-03-14T14:41:34;12.05;;;1.65;;
63005;SDS011;53704;52.532;6.426;2023-03-14T14:44:04;5.60;;;1.95;;
63005;SDS011;53704;52.532;6.426;2023-03-14T14:46:30;8.07;;;1.92;;
63005;SDS011;53704;52.532;6.426;2023-03-14T14:49:02;8.93;;;1.90;;
63005;SDS011;53704;52.532;6.426;2023-03-14T14:51:38;7.25;;;1.80;;
63005;SDS011;53704;52.532;6.426;2023-03-14T14:54:10;6.72;;;1.58;;
63005;SDS011;53704;52.532;6.426;2023-03-14T14:56:38;15.20;;;2.65;;
63005;SDS011;53704;52.532;6.426;2023-03-14T14:59:05;6.60;;;1.70;;
63005;SDS011;53704;52.532;6.426;2023-03-14T15:01:33;7.10;;;1.92;;
63005;SDS011;53704;52.532;6.426;2023-03-14T15:04:09;7.50;;;1.67;;
63005;SDS011;53704;52.532;6.426;2023-03-14T15:06:37;7.15;;;1.80;;
63005;SDS011;53704;52.532;6.426;2023-03-14T15:09:02;14.85;;;2.03;;
63005;SDS011;53704;52.532;6.426;2023-03-14T15:11:29;7.72;;;1.98;;
63005;SDS011;53704;52.532;6.426;2023-03-14T15:13:54;8.80;;;1.55;;
63005;SDS011;53704;52.532;6.426;2023-03-14T15:16:21;5.85;;;2.00;;
63005;SDS011;53704;52.532;6.426;2023-03-14T15:18:58;9.35;;;1.65;;
63005;SDS011;53704;52.532;6.426;2023-03-14T15:21:26;9.95;;;1.48;;
63005;SDS011;53704;52.532;6.426;2023-03-14T15:23:53;12.63;;;1.98;;
63005;SDS011;53704;52.532;6.426;2023-03-14T15:26:20;11.18;;;1.90;;
63005;SDS011;53704;52.532;6.426;2023-03-14T15:28:48;9.55;;;1.83;;
63005;SDS011;53704;52.532;6.426;2023-03-14T15:31:14;11.95;;;1.83;;
63005;SDS011;53704;52.532;6.426;2023-03-14T15:33:40;16.95;;;1.65;;
63005;SDS011;53704;52.532;6.426;2023-03-14T15:36:14;7.80;;;1.60;;
63005;SDS011;53704;52.532;6.426;2023-03-14T15:38:42;7.47;;;1.73;;
63005;SDS011;53704;52.532;6.426;2023-03-14T15:41:07;13.52;;;2.03;;
63005;SDS011;53704;52.532;6.426;2023-03-14T15:43:34;20.50;;;6.38;;
63005;SDS011;53704;52.532;6.426;2023-03-14T15:46:00;23.45;;;8.38;;
63005;SDS011;53704;52.532;6.426;2023-03-14T15:48:25;68.15;;;24.02;;
63005;SDS011;53704;52.532;6.426;2023-03-14T15:50:51;68.60;;;21.75;;